This is the latest recevied weather packets stored in our database for station/object N5AEH. If no packets are shown the sender has not sent any weather packets the latest 1 day(s).
| Time | Temp. | Humidity | Pressure | Rain* | Wind** | Luminosity | Snow |
|---|---|---|---|---|---|---|---|
| 1778022163 | 14.44° C | 99% | 1010.2 hPa | 0 mm | 0 m/s | 30 W/m² | - |
| 1778021859 | 14.44° C | 99% | 1010 hPa | 0 mm | 0 m/s | 26 W/m² | - |
| 1778021557 | 15° C | 99% | 1009.9 hPa | 0 mm | 0 m/s | 19 W/m² | - |
| 1778021252 | 15° C | 99% | 1010 hPa | 0 mm | 0 m/s | 23 W/m² | - |
| 1778020950 | 15° C | 99% | 1010 hPa | 0 mm | 0 m/s | 25 W/m² | - |
| 1778020647 | 15° C | 99% | 1009.7 hPa | 0 mm | 0 m/s | 53 W/m² | - |
| 1778020344 | 14.44° C | 99% | 1009.8 hPa | 0 mm | 0 m/s | 75 W/m² | - |
| 1778020039 | 14.44° C | 99% | 1010.1 hPa | 0 mm | 0 m/s | 59 W/m² | - |
| 1778019735 | 14.44° C | 99% | 1009.6 hPa | 0 mm | 0 m/s | 45 W/m² | - |
| 1778019433 | 14.44° C | 99% | 1009.6 hPa | 0 mm | 0 m/s | 22 W/m² | - |
| 1778019129 | 14.44° C | 99% | 1009.8 hPa | 0 mm | 0 m/s | 26 W/m² | - |
| 1778018826 | 14.44° C | 99% | 1009.4 hPa | 0 mm | 0 m/s | 86 W/m² | - |
| 1778018524 | 14.44° C | 99% | 1009.2 hPa | 0 mm | 0 m/s | 29 W/m² | - |
| 1778018222 | 14.44° C | 99% | 1008.8 hPa | 4.32 mm | 0 m/s | 29 W/m² | - |
| 1778017920 | 15° C | 99% | 1009.6 hPa | 6.1 mm | 0 m/s | 17 W/m² | - |
| 1778017617 | 15° C | 99% | 1010.4 hPa | 6.1 mm | 0 m/s | 12 W/m² | - |
| 1778017314 | 15° C | 96% | 1011.1 hPa | 4.32 mm | 0 m/s | 7 W/m² | - |
| 1778017011 | 15° C | 95% | 1010.9 hPa | 3.05 mm | 0 m/s | 8 W/m² | - |
| 1778016708 | 15.56° C | 94% | 1010.4 hPa | 3.05 mm | 0 m/s | 12 W/m² | - |
| 1778016404 | 15.56° C | 94% | 1010.2 hPa | 1.27 mm | 0 m/s | 14 W/m² | - |
| 1778016102 | 16.11° C | 92% | 1009.9 hPa | 1.78 mm | 0 m/s | 12 W/m² | - |
| 1778015798 | 16.67° C | 90% | 1009.8 hPa | 3.05 mm | 0 m/s | 16 W/m² | - |
| 1778015496 | 18.33° C | 86% | 1009.3 hPa | 3.05 mm | 0 m/s | 48 W/m² | - |
| 1778015192 | 21.11° C | 75% | 1009.4 hPa | 0 mm | 0 m/s | 34 W/m² | - |
| 1778014890 | 24.44° C | 53% | 1008.1 hPa | 0 mm | 0.89 m/s, 233° | 20 W/m² | - |
* Rain latest hour (hover to see other rain measurements)
** Current wind speed in m/s (hover to see current wind gust speed)